Time;durP1;ratioP1;P1;durP2;ratioP2;P2;SDS_P1;SDS_P2;PMS_P1;PMS_P2;Temp;Humidity;BMP_temperature;BMP_pressure;BME280_temperature;BME280_humidity;BME280_pressure;Samples;Min_cycle;Max_cycle;Signal;HPM_P1;HPM_P2
2022/04/24 00:01:20;;;;;;;29.80;24.27;;;29.00;99.90;;;;;;4180711;28;20112;-69
2022/04/24 00:03:27;;;;;;;30.75;23.95;;;29.00;99.90;;;;;;4180237;28;20037;-69
2022/04/24 00:05:32;;;;;;;26.13;23.10;;;29.10;99.90;;;;;;4190503;28;20765;-69
2022/04/24 00:07:39;;;;;;;31.23;24.48;;;29.10;99.90;;;;;;4145990;28;20049;-69
2022/04/24 00:09:43;;;;;;;30.77;24.50;;;29.10;99.90;;;;;;4195847;28;20555;-68
2022/04/24 00:11:48;;;;;;;35.22;24.30;;;29.10;99.90;;;;;;4181248;28;20060;-69
2022/04/24 00:13:56;;;;;;;26.30;22.88;;;29.10;99.90;;;;;;4168782;28;20751;-70
2022/04/24 00:16:01;;;;;;;27.55;22.73;;;29.00;99.90;;;;;;4176327;28;20119;-70
2022/04/24 00:18:06;;;;;;;26.98;23.35;;;29.10;99.90;;;;;;4177648;28;20044;-70
2022/04/24 00:20:14;;;;;;;26.45;21.17;;;29.10;99.90;;;;;;4159850;28;20121;-69
2022/04/24 00:22:18;;;;;;;27.33;21.08;;;29.20;99.90;;;;;;4162835;28;20042;-69
2022/04/24 00:24:24;;;;;;;26.40;21.23;;;29.20;99.90;;;;;;4180953;28;20052;-69
2022/04/24 00:26:33;;;;;;;30.17;20.13;;;29.30;99.90;;;;;;4182338;28;20094;-68
2022/04/24 00:28:37;;;;;;;29.08;21.20;;;29.30;99.90;;;;;;4181625;28;20048;-67
2022/04/24 00:30:42;;;;;;;35.20;20.10;;;29.30;99.90;;;;;;4182792;28;20044;-69
2022/04/24 00:32:51;;;;;;;28.88;19.27;;;29.30;99.90;;;;;;4182978;28;20405;-68
2022/04/24 00:34:55;;;;;;;27.05;19.35;;;29.20;99.90;;;;;;4181433;28;20084;-67
2022/04/24 00:37:00;;;;;;;27.38;18.70;;;29.10;99.90;;;;;;4176674;28;20053;-71
2022/04/24 00:39:07;;;;;;;23.73;17.38;;;29.10;99.90;;;;;;4156215;28;20046;-71
2022/04/24 00:41:11;;;;;;;22.48;18.70;;;29.20;99.90;;;;;;4182304;28;20037;-71
2022/04/24 00:43:16;;;;;;;23.70;19.73;;;29.20;99.90;;;;;;4184637;28;20083;-70
2022/04/24 00:45:36;;;;;;;24.35;19.05;;;29.30;99.90;;;;;;4183662;28;20056;-71
2022/04/24 00:47:44;;;;;;;20.02;16.98;;;29.50;99.90;;;;;;4182689;28;20049;-71
2022/04/24 00:49:49;;;;;;;23.80;18.02;;;29.60;99.90;;;;;;4184847;28;20443;-71
2022/04/24 00:51:54;;;;;;;20.77;17.33;;;29.60;99.70;;;;;;4171866;28;20046;-70
2022/04/24 00:53:58;;;;;;;25.55;18.35;;;29.60;99.70;;;;;;4185728;28;20459;-72
2022/04/24 00:56:10;;;;;;;25.27;18.02;;;29.70;99.50;;;;;;4182088;28;20045;-69
2022/04/24 00:58:19;;;;;;;22.25;16.90;;;29.70;99.50;;;;;;4164674;28;20045;-71
2022/04/24 01:00:25;;;;;;;23.70;18.20;;;29.80;99.30;;;;;;4171432;28;20049;-71
2022/04/24 01:02:30;;;;;;;23.02;18.35;;;29.90;99.60;;;;;;4176352;28;20105;-71
2022/04/24 01:04:38;;;;;;;25.15;17.95;;;30.00;99.60;;;;;;4176175;28;20053;-72
2022/04/24 01:06:43;;;;;;;21.38;17.25;;;30.10;99.60;;;;;;4162249;28;20053;-71
2022/04/24 01:08:48;;;;;;;21.00;16.02;;;30.10;99.30;;;;;;4172109;28;20072;-70
2022/04/24 01:10:55;;;;;;;22.88;15.73;;;30.20;99.20;;;;;;4177480;28;20400;-72
2022/04/24 01:13:03;;;;;;;21.80;14.80;;;30.10;98.70;;;;;;4188491;28;20132;-71
2022/04/24 01:15:09;;;;;;;20.48;14.73;;;30.20;98.70;;;;;;4194334;28;20044;-73
2022/04/24 01:17:17;;;;;;;18.52;13.98;;;30.20;98.70;;;;;;4193393;28;20051;-71
2022/04/24 01:19:22;;;;;;;17.80;13.70;;;30.30;98.70;;;;;;4192802;28;20045;-72
2022/04/24 01:21:26;;;;;;;17.20;13.88;;;30.30;98.60;;;;;;4198927;28;20033;-71
2022/04/24 01:23:36;;;;;;;19.05;13.95;;;30.40;98.20;;;;;;4192333;28;20041;-72
2022/04/24 01:25:40;;;;;;;21.75;13.98;;;30.40;98.00;;;;;;4203355;28;20044;-72
2022/04/24 01:27:45;;;;;;;20.60;13.43;;;30.50;98.00;;;;;;4198223;28;20051;-70
2022/04/24 01:29:53;;;;;;;17.42;12.73;;;30.50;97.90;;;;;;4166955;28;20060;-69
2022/04/24 01:31:58;;;;;;;15.63;12.30;;;30.50;97.70;;;;;;4200749;28;20079;-70
2022/04/24 01:34:02;;;;;;;16.02;11.00;;;30.50;97.40;;;;;;4197597;28;20094;-68
2022/04/24 01:36:09;;;;;;;18.63;12.18;;;30.60;97.30;;;;;;4198759;28;20072;-70
2022/04/24 01:38:14;;;;;;;13.32;10.93;;;30.70;97.00;;;;;;4200779;28;20487;-69
2022/04/24 01:40:29;;;;;;;14.57;11.55;;;30.70;96.50;;;;;;4198955;28;20044;-70
2022/04/24 01:42:37;;;;;;;11.73;10.52;;;30.70;96.50;;;;;;4186985;28;20052;-69
2022/04/24 01:44:43;;;;;;;16.17;11.45;;;30.70;96.30;;;;;;4193991;28;20129;-70
2022/04/24 01:46:48;;;;;;;15.57;10.90;;;30.80;96.20;;;;;;4197213;28;20055;-69
2022/04/24 01:48:57;;;;;;;15.68;10.55;;;30.80;96.40;;;;;;4191524;28;20049;-70
2022/04/24 01:51:03;;;;;;;15.52;10.77;;;30.90;96.50;;;;;;4194876;28;20446;-70
2022/04/24 01:53:08;;;;;;;21.67;18.38;;;30.90;96.50;;;;;;4199148;28;20539;-70
2022/04/24 01:55:15;;;;;;;20.42;16.02;;;31.00;96.40;;;;;;4150029;28;20049;-70
2022/04/24 01:57:25;;;;;;;19.38;15.43;;;31.00;96.30;;;;;;4195338;28;20049;-69
2022/04/24 01:59:31;;;;;;;18.00;13.50;;;31.10;96.30;;;;;;4184571;28;20100;-71
2022/04/24 02:01:37;;;;;;;17.38;13.70;;;31.10;96.20;;;;;;4172195;28;20061;-71
2022/04/24 02:03:42;;;;;;;16.00;12.48;;;31.20;96.00;;;;;;4200939;28;20072;-71
2022/04/24 02:05:48;;;;;;;13.98;11.57;;;31.20;95.70;;;;;;4197302;28;20036;-71
2022/04/24 02:07:55;;;;;;;17.90;12.00;;;31.20;95.60;;;;;;4199069;28;20048;-70
2022/04/24 02:10:00;;;;;;;20.13;12.00;;;31.20;95.30;;;;;;4193193;28;20395;-69
2022/04/24 02:12:08;;;;;;;16.48;11.30;;;31.20;95.10;;;;;;4201089;28;20124;-70
2022/04/24 02:14:17;;;;;;;15.75;11.20;;;31.20;94.90;;;;;;4205046;28;20084;-71
2022/04/24 02:16:21;;;;;;;16.48;11.90;;;31.30;95.10;;;;;;4200041;28;20044;-71
2022/04/24 02:18:27;;;;;;;15.85;10.90;;;31.40;95.10;;;;;;4196865;28;20054;-72
2022/04/24 02:20:35;;;;;;;13.57;10.98;;;31.40;94.70;;;;;;4193164;28;20438;-71
2022/04/24 02:22:40;;;;;;;13.95;10.20;;;31.40;94.50;;;;;;4195210;28;20068;-70
2022/04/24 02:24:44;;;;;;;15.98;10.63;;;31.40;94.20;;;;;;4192092;28;20060;-70
2022/04/24 02:26:53;;;;;;;14.02;10.85;;;31.40;94.20;;;;;;4203243;28;20068;-71
2022/04/24 02:28:58;;;;;;;16.48;11.75;;;31.50;94.10;;;;;;4201835;28;20039;-71
2022/04/24 02:31:03;;;;;;;14.82;10.40;;;31.40;94.20;;;;;;4193589;28;20471;-71
2022/04/24 02:33:11;;;;;;;18.05;11.55;;;31.50;94.40;;;;;;4199497;28;20097;-71
2022/04/24 02:35:15;;;;;;;13.90;9.63;;;31.60;94.30;;;;;;4201967;28;20083;-71
2022/04/24 02:37:20;;;;;;;15.50;10.10;;;31.70;94.40;;;;;;4196112;28;20851;-71
2022/04/24 02:39:28;;;;;;;11.45;8.65;;;31.80;94.10;;;;;;4192852;28;20066;-71
2022/04/24 02:41:33;;;;;;;12.93;9.60;;;31.80;94.00;;;;;;4203711;28;20051;-71
2022/04/24 02:43:37;;;;;;;11.98;9.43;;;31.80;93.70;;;;;;4205344;28;20443;-72
2022/04/24 02:45:46;;;;;;;13.93;9.82;;;31.80;93.40;;;;;;4197116;28;20105;-71
2022/04/24 02:47:51;;;;;;;12.30;8.90;;;31.90;93.80;;;;;;4196926;28;20151;-70
2022/04/24 02:49:56;;;;;;;11.40;9.07;;;31.90;93.60;;;;;;4195006;28;20044;-70
2022/04/24 02:52:02;;;;;;;12.50;9.27;;;31.90;93.60;;;;;;4202745;28;20044;-69
2022/04/24 02:54:07;;;;;;;14.85;9.38;;;31.90;93.30;;;;;;4185747;28;20045;-69
2022/04/24 02:56:11;;;;;;;11.93;9.25;;;32.00;93.50;;;;;;4195592;28;20045;-74
2022/04/24 02:58:16;;;;;;;11.82;9.13;;;32.10;93.50;;;;;;4198841;28;20494;-74
2022/04/24 03:00:24;;;;;;;12.38;9.13;;;32.10;92.90;;;;;;4191552;28;20044;-72
2022/04/24 03:02:29;;;;;;;13.13;9.20;;;32.10;93.00;;;;;;4180508;28;20064;-72
2022/04/24 03:04:37;;;;;;;12.98;9.20;;;32.20;92.90;;;;;;4196200;28;20068;-75
2022/04/24 03:06:42;;;;;;;11.38;9.15;;;32.30;92.90;;;;;;4202105;28;20090;-74
2022/04/24 03:08:48;;;;;;;10.05;8.30;;;32.40;93.00;;;;;;4198137;28;20430;-74
2022/04/24 03:10:56;;;;;;;12.90;8.75;;;32.50;93.40;;;;;;4186618;28;20033;-73
2022/04/24 03:13:01;;;;;;;11.57;8.60;;;32.60;93.00;;;;;;4186007;28;20045;-75
2022/04/24 03:15:07;;;;;;;13.05;8.50;;;32.60;92.90;;;;;;4193134;28;20044;-72
2022/04/24 03:17:13;;;;;;;14.15;8.68;;;32.70;92.60;;;;;;4199219;28;20063;-72
2022/04/24 03:19:18;;;;;;;11.27;8.88;;;32.80;92.40;;;;;;4200033;28;20094;-73
2022/04/24 03:21:24;;;;;;;8.80;7.90;;;32.80;92.10;;;;;;4203067;28;20068;-74
2022/04/24 03:23:32;;;;;;;11.63;7.90;;;32.90;92.20;;;;;;4195822;28;20105;-73
2022/04/24 03:25:36;;;;;;;10.95;7.60;;;33.00;91.90;;;;;;4201148;28;20070;-74
2022/04/24 03:27:40;;;;;;;11.35;7.55;;;33.00;91.30;;;;;;4184739;28;20037;-75
2022/04/24 03:29:49;;;;;;;12.65;9.25;;;33.00;91.30;;;;;;4166217;28;20053;-73
2022/04/24 03:31:54;;;;;;;14.70;8.60;;;33.10;91.20;;;;;;4197123;28;20041;-73
2022/04/24 03:33:58;;;;;;;9.82;7.57;;;33.20;91.20;;;;;;4204784;28;20040;-75
2022/04/24 03:36:08;;;;;;;9.40;7.38;;;33.30;90.80;;;;;;4150407;28;20041;-74
2022/04/24 03:38:12;;;;;;;10.32;8.15;;;33.30;91.00;;;;;;4201830;28;20135;-73
2022/04/24 03:40:17;;;;;;;11.27;8.55;;;33.40;90.90;;;;;;4201186;28;20033;-73
2022/04/24 03:42:27;;;;;;;13.48;7.82;;;33.40;90.70;;;;;;4201663;28;20071;-73
2022/04/24 03:44:32;;;;;;;10.85;8.00;;;33.50;90.30;;;;;;4200827;28;20048;-73
2022/04/24 03:46:39;;;;;;;10.85;8.07;;;33.50;89.30;;;;;;4184842;28;20045;-74
2022/04/24 03:48:46;;;;;;;10.60;8.15;;;33.50;90.00;;;;;;4198738;28;20052;-73
2022/04/24 03:50:51;;;;;;;11.52;7.80;;;33.50;90.00;;;;;;4190631;28;20056;-72
2022/04/24 03:52:56;;;;;;;9.25;7.75;;;33.60;89.10;;;;;;4175313;28;20057;-74
2022/04/24 03:55:05;;;;;;;13.35;8.70;;;33.50;88.40;;;;;;4159863;28;20173;-73
2022/04/24 03:57:11;;;;;;;9.68;8.23;;;33.50;89.10;;;;;;4180555;28;20045;-72
2022/04/24 03:59:16;;;;;;;12.10;7.97;;;33.50;88.60;;;;;;4202763;28;20040;-75
2022/04/24 04:01:24;;;;;;;9.73;7.85;;;33.70;89.10;;;;;;4197560;28;20130;-75
2022/04/24 04:03:29;;;;;;;16.73;8.20;;;33.70;89.30;;;;;;4200881;28;20048;-74
2022/04/24 04:05:37;;;;;;;10.88;7.60;;;33.90;88.80;;;;;;4202334;28;20067;-77
2022/04/24 04:07:43;;;;;;;11.90;8.07;;;33.90;87.70;;;;;;4199234;28;20052;-78
2022/04/24 04:09:48;;;;;;;10.65;7.68;;;33.80;88.70;;;;;;4195662;28;20052;-76
2022/04/24 04:11:53;;;;;;;9.38;7.82;;;33.90;88.30;;;;;;4175971;28;20128;-75
2022/04/24 04:14:00;;;;;;;11.13;8.40;;;34.00;87.80;;;;;;4195854;28;20485;-74
2022/04/24 04:16:04;;;;;;;11.90;7.82;;;34.00;88.20;;;;;;4183452;28;20749;-74
2022/04/24 04:18:09;;;;;;;11.68;8.27;;;34.00;89.30;;;;;;4194709;28;20112;-74
2022/04/24 04:20:16;;;;;;;10.60;8.38;;;33.90;90.00;;;;;;4197942;28;20048;-74
2022/04/24 04:22:25;;;;;;;12.52;8.48;;;33.90;90.20;;;;;;4193056;28;20123;-73
2022/04/24 04:24:29;;;;;;;13.80;8.23;;;33.80;89.70;;;;;;4191307;28;20056;-74
2022/04/24 04:26:38;;;;;;;10.63;8.15;;;33.90;90.00;;;;;;4194764;28;20389;-74
2022/04/24 04:28:43;;;;;;;11.05;8.38;;;34.00;89.90;;;;;;4180683;28;20049;-73
2022/04/24 04:30:48;;;;;;;11.57;8.55;;;34.20;90.00;;;;;;4199436;28;20044;-75
2022/04/24 04:32:55;;;;;;;11.77;7.90;;;34.30;89.90;;;;;;4148849;28;20121;-73
2022/04/24 04:35:01;;;;;;;10.23;7.93;;;34.30;89.70;;;;;;4175946;28;20098;-74
2022/04/24 04:37:05;;;;;;;9.10;7.75;;;34.40;89.00;;;;;;4171159;28;20044;-73
2022/04/24 04:39:14;;;;;;;10.35;8.15;;;34.50;88.80;;;;;;4192403;28;20064;-73
2022/04/24 04:41:19;;;;;;;11.82;8.18;;;34.40;87.80;;;;;;4200437;28;20037;-73
2022/04/24 04:43:27;;;;;;;15.52;7.72;;;34.30;85.70;;;;;;4199226;28;20712;-71
2022/04/24 04:45:31;;;;;;;12.13;7.97;;;34.40;87.20;;;;;;4197816;28;20055;-73
2022/04/24 04:47:37;;;;;;;10.95;7.80;;;34.50;87.10;;;;;;4178102;28;20053;-72
2022/04/24 04:49:42;;;;;;;14.68;7.95;;;34.60;86.70;;;;;;4197107;28;20041;-74
2022/04/24 04:51:49;;;;;;;10.98;7.47;;;34.70;86.00;;;;;;4154586;28;20057;-73
2022/04/24 04:53:55;;;;;;;8.23;7.43;;;34.70;86.20;;;;;;4192970;28;20055;-74
2022/04/24 04:56:00;;;;;;;12.20;8.25;;;34.70;86.10;;;;;;4186573;28;20620;-73
2022/04/24 04:58:07;;;;;;;10.13;7.88;;;34.80;86.70;;;;;;4192461;28;20037;-72
2022/04/24 05:00:13;;;;;;;9.93;7.32;;;35.00;85.80;;;;;;4198350;28;20045;-74
2022/04/24 05:02:18;;;;;;;10.38;7.60;;;35.00;85.90;;;;;;4199906;28;20044;-74
2022/04/24 05:04:27;;;;;;;13.23;7.47;;;35.10;85.40;;;;;;4183822;28;20072;-73
2022/04/24 05:06:32;;;;;;;31.33;8.73;;;35.10;85.10;;;;;;4198436;28;20067;-72
2022/04/24 05:08:37;;;;;;;70.00;11.77;;;35.30;86.20;;;;;;4203590;28;20075;-74
2022/04/24 05:10:46;;;;;;;22.92;8.60;;;35.40;85.40;;;;;;4203940;28;20439;-72
2022/04/24 05:12:50;;;;;;;18.63;8.50;;;35.30;84.80;;;;;;4187579;28;20052;-73
2022/04/24 05:15:04;;;;;;;13.82;8.23;;;35.20;85.30;;;;;;4199805;28;20102;-74
2022/04/24 05:17:10;;;;;;;14.07;8.40;;;35.10;85.70;;;;;;4199139;28;20052;-71
2022/04/24 05:19:15;;;;;;;13.38;7.97;;;35.00;86.20;;;;;;4207759;28;20048;-76
2022/04/24 05:21:25;;;;;;;10.95;8.10;;;34.90;85.40;;;;;;4204066;28;20032;-74
2022/04/24 05:23:30;;;;;;;12.60;7.88;;;34.90;86.00;;;;;;4194805;28;20052;-73
2022/04/24 05:25:35;;;;;;;12.02;8.15;;;34.90;86.40;;;;;;4212019;28;20437;-78
2022/04/24 05:27:41;;;;;;;11.32;7.60;;;34.80;85.70;;;;;;4188487;28;20037;-79
2022/04/24 05:29:48;;;;;;;11.48;7.55;;;34.90;86.00;;;;;;4206121;28;20108;-75
2022/04/24 05:31:53;;;;;;;9.10;7.72;;;35.10;83.60;;;;;;4194659;28;20087;-74
2022/04/24 05:33:59;;;;;;;10.73;7.47;;;35.20;83.20;;;;;;4197883;28;20041;-73
2022/04/24 05:36:06;;;;;;;9.65;7.72;;;35.30;83.60;;;;;;4193283;28;20067;-74
2022/04/24 05:38:17;;;;;;;11.35;7.25;;;35.30;83.60;;;;;;4203678;28;20078;-75
2022/04/24 05:40:24;;;;;;;12.65;7.50;;;35.40;83.70;;;;;;4172277;28;20140;-75
2022/04/24 05:42:29;;;;;;;9.73;7.32;;;35.30;83.60;;;;;;4168838;28;20548;-73
2022/04/24 05:44:34;;;;;;;9.57;7.05;;;35.40;84.30;;;;;;4200684;28;20119;-73
2022/04/24 05:46:38;;;;;;;11.50;7.45;;;35.50;84.30;;;;;;4184361;28;20052;-73
2022/04/24 05:48:43;;;;;;;10.60;6.97;;;35.60;84.10;;;;;;4200097;28;20059;-74
2022/04/24 05:50:47;;;;;;;9.25;6.75;;;35.60;84.10;;;;;;4198207;28;20056;-72
2022/04/24 05:52:55;;;;;;;10.82;7.15;;;35.50;84.00;;;;;;4198037;28;20407;-74
2022/04/24 05:55:02;;;;;;;9.30;7.60;;;35.40;84.20;;;;;;4167174;28;20505;-74
2022/04/24 05:57:06;;;;;;;9.45;7.15;;;35.30;84.20;;;;;;4196594;28;20040;-74
2022/04/24 05:59:13;;;;;;;10.07;7.20;;;35.30;84.20;;;;;;4194448;28;20044;-74
2022/04/24 06:01:20;;;;;;;8.98;6.72;;;35.30;82.50;;;;;;4199778;28;20112;-73
2022/04/24 06:03:24;;;;;;;9.63;6.72;;;35.20;83.10;;;;;;4197518;28;20063;-75
2022/04/24 06:05:29;;;;;;;9.48;6.80;;;35.30;83.40;;;;;;4201525;28;20071;-74
2022/04/24 06:07:34;;;;;;;8.65;6.93;;;35.30;83.50;;;;;;4176828;28;20104;-76
2022/04/24 06:09:39;;;;;;;9.57;6.90;;;35.30;83.90;;;;;;4203584;28;20108;-76
2022/04/24 06:11:58;;;;;;;10.80;7.18;;;35.20;83.50;;;;;;4190923;28;20087;-73
2022/04/24 06:14:08;;;;;;;8.90;7.03;;;35.20;84.10;;;;;;4199359;28;20041;-74
2022/04/24 06:16:12;;;;;;;9.02;6.90;;;35.10;83.20;;;;;;4202289;28;20110;-73
2022/04/24 06:18:19;;;;;;;7.50;6.68;;;35.10;83.00;;;;;;4197367;28;20131;-73
2022/04/24 06:20:26;;;;;;;12.45;7.10;;;35.10;82.30;;;;;;4162548;28;20076;-74
2022/04/24 06:22:40;;;;;;;8.85;6.45;;;35.00;82.50;;;;;;4198211;28;20064;-73
2022/04/24 06:24:50;;;;;;;7.57;6.70;;;35.10;82.10;;;;;;4198525;28;20108;-73
2022/04/24 06:26:56;;;;;;;8.88;6.70;;;35.30;81.00;;;;;;4201070;28;20037;-73
2022/04/24 06:29:02;;;;;;;12.68;7.25;;;35.30;80.50;;;;;;4200826;28;20053;-73
2022/04/24 06:31:08;;;;;;;9.48;7.13;;;35.30;79.80;;;;;;4192697;28;20107;-76
2022/04/24 06:33:15;;;;;;;9.75;6.60;;;35.20;80.40;;;;;;4195229;28;20079;-75
2022/04/24 06:35:20;;;;;;;8.13;7.03;;;35.40;79.90;;;;;;4200124;28;20072;-75
2022/04/24 06:37:25;;;;;;;10.70;7.07;;;35.60;79.90;;;;;;4198276;28;20390;-74
2022/04/24 06:39:31;;;;;;;9.38;6.65;;;35.80;79.60;;;;;;4200390;28;21679;-73
2022/04/24 06:41:35;;;;;;;9.60;6.72;;;35.90;79.50;;;;;;4196460;28;20037;-74
2022/04/24 06:43:42;;;;;;;7.45;6.28;;;36.00;78.80;;;;;;4198648;28;20048;-73
2022/04/24 06:45:49;;;;;;;10.48;7.30;;;35.90;77.90;;;;;;4201778;28;20052;-74
2022/04/24 06:47:59;;;;;;;10.80;6.88;;;35.90;77.90;;;;;;4202744;28;20072;-76
2022/04/24 06:50:08;;;;;;;7.53;6.60;;;35.90;78.90;;;;;;4201448;28;20044;-74
2022/04/24 06:52:14;;;;;;;10.80;7.05;;;36.00;78.10;;;;;;4183532;28;20104;-75
2022/04/24 06:54:18;;;;;;;11.25;7.25;;;36.20;77.50;;;;;;4200806;28;20047;-72
2022/04/24 06:56:25;;;;;;;9.02;6.63;;;36.10;77.80;;;;;;4197397;28;20068;-71
2022/04/24 06:58:32;;;;;;;7.93;6.68;;;36.20;77.30;;;;;;4196390;28;20036;-73
2022/04/24 07:00:45;;;;;;;7.47;6.65;;;36.30;75.80;;;;;;4181523;28;20100;-75
2022/04/24 07:03:12;;;;;;;8.02;6.18;;;36.20;75.80;;;;;;4199966;28;20048;-73
2022/04/24 07:05:24;;;;;;;8.45;6.50;;;36.20;75.50;;;;;;4180357;28;20055;-75
2022/04/24 07:07:28;;;;;;;7.90;6.47;;;36.30;75.60;;;;;;4197935;28;20055;-76
2022/04/24 07:09:35;;;;;;;11.35;6.72;;;36.30;75.80;;;;;;4203987;28;20045;-75
2022/04/24 07:11:42;;;;;;;10.30;6.93;;;36.30;76.20;;;;;;4200499;28;20044;-72
2022/04/24 07:13:47;;;;;;;7.88;6.13;;;36.30;76.50;;;;;;4198410;28;20075;-73
2022/04/24 07:15:52;;;;;;;7.22;6.43;;;36.30;77.30;;;;;;4201283;28;20036;-73
2022/04/24 07:17:56;;;;;;;9.73;6.53;;;36.40;76.90;;;;;;4200926;28;20059;-73
2022/04/24 07:20:01;;;;;;;11.55;6.68;;;36.50;76.30;;;;;;4203120;28;20037;-73
2022/04/24 07:22:06;;;;;;;8.10;6.25;;;36.60;75.90;;;;;;4184568;28;20033;-73
2022/04/24 07:24:10;;;;;;;9.10;6.40;;;36.60;74.70;;;;;;4197811;28;20037;-72
2022/04/24 07:26:15;;;;;;;7.75;6.40;;;36.60;74.80;;;;;;4201304;28;20040;-73
2022/04/24 07:28:20;;;;;;;6.63;5.93;;;36.50;74.80;;;;;;4194828;28;20565;-73
2022/04/24 07:30:24;;;;;;;9.07;6.13;;;36.60;75.70;;;;;;4188606;28;20587;-72
2022/04/24 07:32:39;;;;;;;7.65;6.18;;;36.60;75.60;;;;;;4197900;28;20067;-76
2022/04/24 07:34:47;;;;;;;10.25;6.47;;;36.50;74.50;;;;;;4206374;28;20486;-72
2022/04/24 07:36:53;;;;;;;9.30;6.00;;;36.60;75.30;;;;;;4183524;28;20068;-73
2022/04/24 07:39:01;;;;;;;7.40;5.75;;;36.50;76.10;;;;;;4180881;28;20136;-73
2022/04/24 07:41:09;;;;;;;7.35;5.75;;;36.50;76.40;;;;;;4195885;28;20361;-72
2022/04/24 07:43:15;;;;;;;8.93;5.63;;;36.50;76.70;;;;;;4198460;28;20041;-74
2022/04/24 07:45:25;;;;;;;9.27;5.97;;;36.50;76.80;;;;;;4197800;28;20070;-72
2022/04/24 07:47:29;;;;;;;7.82;5.70;;;36.60;78.40;;;;;;4181965;28;20040;-71
2022/04/24 07:49:34;;;;;;;8.80;5.93;;;36.60;78.00;;;;;;4181871;28;20109;-72
2022/04/24 07:51:41;;;;;;;6.90;5.35;;;36.60;76.40;;;;;;4198413;28;20078;-73
2022/04/24 07:53:48;;;;;;;8.55;5.45;;;36.70;75.80;;;;;;4198742;28;20059;-72
2022/04/24 07:55:53;;;;;;;8.93;5.82;;;36.70;75.00;;;;;;4199738;28;20503;-74
2022/04/24 07:57:58;;;;;;;10.05;5.80;;;36.70;74.30;;;;;;4196466;28;20044;-73
2022/04/24 08:00:07;;;;;;;7.38;5.35;;;36.60;74.20;;;;;;4194419;28;20052;-72
2022/04/24 08:02:14;;;;;;;7.45;5.15;;;36.60;74.40;;;;;;4198418;28;20052;-73
2022/04/24 08:04:22;;;;;;;8.43;5.55;;;36.70;75.40;;;;;;4181374;28;20056;-72
2022/04/24 08:06:28;;;;;;;8.88;5.88;;;36.70;75.00;;;;;;4196623;28;20036;-71
2022/04/24 08:08:32;;;;;;;7.18;5.25;;;36.70;74.80;;;;;;4197478;28;20133;-72
2022/04/24 08:10:39;;;;;;;9.05;5.68;;;36.60;75.30;;;;;;4197312;28;20068;-73
2022/04/24 08:12:50;;;;;;;10.98;5.80;;;36.60;75.20;;;;;;4200200;28;20049;-75
2022/04/24 08:14:57;;;;;;;8.93;5.63;;;36.60;75.10;;;;;;4200100;28;20057;-74
2022/04/24 08:17:02;;;;;;;8.50;5.57;;;36.60;75.40;;;;;;4180655;28;20063;-74
2022/04/24 08:19:11;;;;;;;9.15;5.93;;;36.60;76.20;;;;;;4182904;28;20122;-72
2022/04/24 08:21:19;;;;;;;7.05;5.82;;;36.60;75.70;;;;;;4196576;28;20075;-75
2022/04/24 08:23:36;;;;;;;9.30;5.70;;;36.60;76.50;;;;;;4200161;28;20100;-74
2022/04/24 08:25:40;;;;;;;8.50;5.35;;;36.60;75.80;;;;;;4199978;28;20123;-75
2022/04/24 08:27:48;;;;;;;10.70;6.10;;;36.60;75.80;;;;;;4199063;28;20052;-75
2022/04/24 08:29:52;;;;;;;9.45;5.45;;;36.70;76.10;;;;;;4182594;28;20057;-73
2022/04/24 08:31:57;;;;;;;8.77;5.97;;;36.60;75.20;;;;;;4184129;28;20063;-73
2022/04/24 08:34:02;;;;;;;9.25;5.60;;;36.60;75.80;;;;;;4204325;28;20055;-73
2022/04/24 08:36:06;;;;;;;7.22;5.55;;;36.60;76.00;;;;;;4198413;28;20414;-72
2022/04/24 08:38:13;;;;;;;9.25;5.63;;;36.60;76.30;;;;;;4147854;28;20429;-73
2022/04/24 08:40:24;;;;;;;7.85;5.35;;;36.50;76.40;;;;;;4201353;28;20044;-74
2022/04/24 08:42:28;;;;;;;11.63;5.60;;;36.50;76.20;;;;;;4201656;28;20730;-72
2022/04/24 08:44:43;;;;;;;7.57;5.43;;;36.50;75.50;;;;;;4188399;28;20489;-73
2022/04/24 08:46:54;;;;;;;7.32;5.60;;;36.50;75.30;;;;;;4199704;28;20113;-74
2022/04/24 08:48:59;;;;;;;9.35;5.43;;;36.50;75.30;;;;;;4185649;28;20171;-75
2022/04/24 08:51:09;;;;;;;8.63;5.50;;;36.50;75.00;;;;;;4151490;28;20081;-74
2022/04/24 08:53:20;;;;;;;10.38;6.13;;;36.40;75.40;;;;;;4199707;28;20386;-75
2022/04/24 08:55:26;;;;;;;8.63;6.05;;;36.30;75.70;;;;;;4198030;28;20084;-75
2022/04/24 08:57:35;;;;;;;7.32;5.30;;;36.30;75.40;;;;;;4202059;28;20515;-73
2022/04/24 08:59:39;;;;;;;7.03;5.72;;;36.30;74.90;;;;;;4200611;28;20041;-73
2022/04/24 09:01:45;;;;;;;5.68;5.07;;;36.30;75.20;;;;;;4200314;28;20040;-73
2022/04/24 09:03:54;;;;;;;6.82;5.40;;;36.30;75.80;;;;;;4200903;28;20049;-74
2022/04/24 09:05:58;;;;;;;5.68;5.18;;;36.30;76.00;;;;;;4200291;28;20044;-74
2022/04/24 09:08:10;;;;;;;8.32;5.45;;;36.40;76.10;;;;;;4199530;28;20662;-75
2022/04/24 09:10:54;;;;;;;8.40;5.83;;;36.40;76.90;;;;;;4199610;28;20139;-75
2022/04/24 09:13:03;;;;;;;8.23;5.55;;;36.40;77.10;;;;;;4190385;28;20108;-74
2022/04/24 09:15:09;;;;;;;7.15;5.25;;;36.40;76.40;;;;;;4201197;28;20076;-74
2022/04/24 09:17:27;;;;;;;12.15;5.57;;;36.40;76.80;;;;;;4202895;28;20044;-74
2022/04/24 09:19:33;;;;;;;6.97;5.50;;;36.40;75.80;;;;;;4181567;28;20102;-74
2022/04/24 09:21:37;;;;;;;6.85;5.65;;;36.30;75.60;;;;;;4201699;28;20064;-75
2022/04/24 09:23:46;;;;;;;7.35;5.20;;;36.30;75.80;;;;;;4202610;28;20072;-75
2022/04/24 09:25:51;;;;;;;8.48;5.53;;;36.30;75.90;;;;;;4206060;28;20048;-75
2022/04/24 09:27:58;;;;;;;6.22;5.18;;;36.30;76.00;;;;;;4203772;28;20053;-76
2022/04/24 09:30:15;;;;;;;9.88;5.38;;;36.30;74.00;;;;;;4204480;28;20044;-75
2022/04/24 09:32:20;;;;;;;9.90;5.20;;;36.30;74.50;;;;;;4208662;28;20531;-75
2022/04/24 09:34:32;;;;;;;6.82;5.57;;;36.20;74.80;;;;;;4209673;28;20141;-75
2022/04/24 09:36:39;;;;;;;;;;;36.20;75.40;;;;;;4204819;28;20136;-76
2022/04/24 09:38:45;;;;;;;8.85;5.57;;;36.20;75.30;;;;;;4200840;28;20188;-76
2022/04/24 09:40:54;;;;;;;7.43;5.10;;;36.10;75.60;;;;;;4190819;28;20579;-76
2022/04/24 09:43:15;;;;;;;8.40;5.80;;;36.10;75.60;;;;;;4204414;28;20044;-76
2022/04/24 09:45:26;;;;;;;6.80;5.22;;;36.20;75.40;;;;;;4208997;28;20120;-76
2022/04/24 09:47:58;;;;;;;7.38;5.30;;;36.10;75.50;;;;;;4203075;28;20518;-75
2022/04/24 09:50:10;;;;;;;6.00;5.28;;;36.10;75.30;;;;;;4202100;28;20049;-76
2022/04/24 09:52:24;;;;;;;9.05;5.57;;;36.10;74.80;;;;;;4191207;28;20701;-75
2022/04/24 09:54:31;;;;;;;6.82;5.30;;;36.10;75.30;;;;;;4213432;28;20099;-74
2022/04/24 09:56:38;;;;;;;9.27;6.28;;;36.00;75.60;;;;;;4194853;28;20111;-74
2022/04/24 09:58:44;;;;;;;11.70;5.50;;;36.00;75.40;;;;;;4193355;28;20467;-74
2022/04/24 10:00:52;;;;;;;8.85;5.45;;;36.00;75.60;;;;;;4205548;28;20110;-76
2022/04/24 10:03:15;;;;;;;9.48;4.70;;;36.00;75.50;;;;;;4185441;28;20068;-75
2022/04/24 10:05:28;;;;;;;9.68;4.93;;;35.90;75.40;;;;;;4205072;28;20045;-74
2022/04/24 10:07:32;;;;;;;6.85;5.28;;;35.80;75.30;;;;;;4203881;28;20133;-74
2022/04/24 10:09:43;;;;;;;6.65;5.10;;;35.70;75.30;;;;;;4204205;28;20634;-75
2022/04/24 10:11:50;;;;;;;8.90;5.47;;;35.70;75.40;;;;;;4201253;28;20052;-74
2022/04/24 10:13:58;;;;;;;7.00;5.50;;;35.60;75.00;;;;;;4203703;28;20480;-75
2022/04/24 10:16:29;;;;;;;9.15;6.57;;;35.60;75.10;;;;;;4204173;28;20040;-73
2022/04/24 10:19:18;;;;;;;12.95;6.60;;;35.60;75.20;;;;;;4185808;28;20055;-73
2022/04/24 10:21:54;;;;;;;8.00;5.80;;;35.60;75.10;;;;;;4201858;28;20124;-73
2022/04/24 10:24:12;;;;;;;7.18;5.80;;;35.60;75.80;;;;;;4200728;28;20071;-72
2022/04/24 10:26:21;;;;;;;8.27;5.63;;;35.60;76.20;;;;;;4202369;28;20047;-73
2022/04/24 10:28:40;;;;;;;8.30;6.15;;;35.50;76.20;;;;;;4199518;28;20048;-73
2022/04/24 10:31:01;;;;;;;9.32;5.72;;;35.50;76.70;;;;;;4183278;28;20045;-73
2022/04/24 10:33:21;;;;;;;9.02;6.00;;;35.50;76.90;;;;;;4200995;28;20148;-73
2022/04/24 10:35:29;;;;;;;8.60;5.82;;;35.40;76.90;;;;;;4187459;28;20072;-73
2022/04/24 10:37:33;;;;;;;10.80;5.80;;;35.40;76.90;;;;;;4184318;28;20792;-74
2022/04/24 10:39:39;;;;;;;9.95;6.03;;;35.40;77.00;;;;;;4200554;28;20045;-74
2022/04/24 10:42:01;;;;;;;13.63;7.00;;;35.40;77.50;;;;;;4119078;28;20051;-72
2022/04/24 10:44:17;;;;;;;8.05;6.05;;;35.30;77.70;;;;;;4199370;28;20108;-73
2022/04/24 10:46:28;;;;;;;10.68;6.13;;;35.30;78.10;;;;;;4203517;28;20124;-74
2022/04/24 10:48:38;;;;;;;11.23;5.43;;;35.30;78.40;;;;;;4200196;28;20048;-74
2022/04/24 10:50:47;;;;;;;7.88;6.05;;;35.20;78.40;;;;;;4201677;28;20927;-74
2022/04/24 10:52:54;;;;;;;7.45;5.53;;;35.10;78.10;;;;;;4202089;28;20117;-76
2022/04/24 10:55:07;;;;;;;8.90;5.50;;;35.10;78.30;;;;;;4202163;28;20050;-74
2022/04/24 10:57:22;;;;;;;8.27;5.85;;;35.10;78.50;;;;;;4205048;28;20040;-77